createdAt,value
2022-07-29T00:04:22.431Z,101073.40
2022-07-29T00:09:25.973Z,101073.00
2022-07-29T00:14:30.234Z,101074.80
2022-07-29T00:19:33.616Z,101078.40
2022-07-29T00:24:37.062Z,101076.20
2022-07-29T00:29:40.438Z,101077.20
2022-07-29T00:35:02.802Z,101072.00
2022-07-29T00:40:07.431Z,101073.40
2022-07-29T00:45:12.162Z,101075.80
2022-07-29T00:50:16.012Z,101073.40
2022-07-29T00:55:20.255Z,101069.60
2022-07-29T01:00:28.371Z,101070.60
2022-07-29T01:05:48.226Z,101065.00
2022-07-29T01:10:56.313Z,101065.20
2022-07-29T01:16:11.006Z,101069.80
2022-07-29T01:21:54.549Z,101072.80
2022-07-29T01:27:31.833Z,101070.80
2022-07-29T01:32:39.241Z,101075.40
2022-07-29T01:38:12.200Z,101068.20
2022-07-29T01:43:24.265Z,101070.40
2022-07-29T01:48:58.441Z,101074.20
2022-07-29T01:54:29.232Z,101068.40
2022-07-29T01:59:36.750Z,101065.40
2022-07-29T02:04:42.365Z,101059.80
2022-07-29T02:09:49.268Z,101066.40
2022-07-29T02:14:56.225Z,101068.60
2022-07-29T02:20:04.350Z,101067.20
2022-07-29T02:25:13.744Z,101069.60
2022-07-29T02:30:19.673Z,101063.40
2022-07-29T02:35:24.329Z,101061.20
2022-07-29T02:40:28.000Z,101069.40
2022-07-29T02:45:31.791Z,101063.40
2022-07-29T02:50:41.724Z,101067.20
2022-07-29T02:55:54.160Z,101066.80
2022-07-29T03:01:02.654Z,101068.60
2022-07-29T03:06:08.654Z,101076.40
2022-07-29T03:11:40.135Z,101072.60
2022-07-29T03:16:52.453Z,101071.40
2022-07-29T03:22:00.057Z,101065.40
2022-07-29T03:27:06.653Z,101062.80
2022-07-29T03:32:10.063Z,101071.20
2022-07-29T03:37:13.895Z,101063.60
2022-07-29T03:42:22.423Z,101058.60
2022-07-29T03:47:39.296Z,101062.20
2022-07-29T03:52:53.622Z,101059.40
2022-07-29T03:57:59.824Z,101063.40
2022-07-29T04:03:05.895Z,101064.20
2022-07-29T04:08:14.124Z,101057.60
2022-07-29T04:13:17.725Z,101056.00
2022-07-29T04:18:21.117Z,101057.20
2022-07-29T04:23:24.432Z,101057.20
2022-07-29T04:28:27.912Z,101069.60
2022-07-29T04:33:31.230Z,101072.40
2022-07-29T04:38:34.590Z,101082.60
2022-07-29T04:43:38.160Z,101087.00
2022-07-29T04:48:42.237Z,101087.40
2022-07-29T04:53:45.734Z,101085.80
2022-07-29T04:58:49.164Z,101090.20
2022-07-29T05:03:55.873Z,101088.80
2022-07-29T05:09:01.828Z,101086.00
2022-07-29T05:14:05.241Z,101084.20
2022-07-29T05:19:13.970Z,101089.20
2022-07-29T05:24:18.080Z,101088.00
2022-07-29T05:29:42.726Z,101099.60
2022-07-29T05:34:50.460Z,101085.20
2022-07-29T05:39:56.595Z,101087.80
2022-07-29T05:45:01.417Z,101092.00
2022-07-29T05:50:05.981Z,101093.80
2022-07-29T05:55:10.536Z,101102.40
2022-07-29T06:00:14.733Z,101098.80
2022-07-29T06:05:18.569Z,101088.00
2022-07-29T06:10:23.973Z,101092.40
2022-07-29T06:15:30.655Z,101091.80
2022-07-29T06:20:34.374Z,101094.40
2022-07-29T06:25:37.992Z,101108.00
2022-07-29T06:30:41.627Z,101103.00
2022-07-29T06:35:53.142Z,101107.00
2022-07-29T06:41:03.912Z,101108.00
2022-07-29T06:46:11.737Z,101110.80
2022-07-29T06:51:15.441Z,101111.40
2022-07-29T06:56:19.779Z,101109.80
2022-07-29T07:01:23.281Z,101112.00
2022-07-29T07:06:26.701Z,101103.60
2022-07-29T07:11:30.435Z,101107.40
2022-07-29T07:16:34.154Z,101102.00
2022-07-29T07:21:37.662Z,101102.80
2022-07-29T07:26:41.310Z,101115.60
2022-07-29T07:31:45.154Z,101099.20
2022-07-29T07:36:48.605Z,101108.60
2022-07-29T07:41:52.030Z,101110.00
2022-07-29T07:46:55.511Z,101109.00
2022-07-29T07:51:58.872Z,101107.00
2022-07-29T07:57:02.500Z,101108.80
2022-07-29T08:02:07.103Z,101111.00
2022-07-29T08:07:10.797Z,101118.80
2022-07-29T08:12:14.468Z,101123.40
2022-07-29T08:17:17.918Z,101122.80
2022-07-29T08:22:21.338Z,101121.40
2022-07-29T08:27:43.011Z,101113.60
2022-07-29T08:32:54.250Z,101125.40
2022-07-29T08:37:58.177Z,101123.20
2022-07-29T08:43:10.884Z,101118.60
2022-07-29T08:48:16.602Z,101134.20
2022-07-29T08:53:20.579Z,101123.40
2022-07-29T08:58:25.938Z,101130.00
2022-07-29T09:03:34.170Z,101126.00
2022-07-29T09:08:37.692Z,101120.00
2022-07-29T09:13:41.507Z,101122.60
2022-07-29T09:18:47.976Z,101115.80
2022-07-29T09:24:20.695Z,101114.60
2022-07-29T09:29:26.036Z,101116.60
2022-07-29T09:34:32.849Z,101113.00
2022-07-29T09:39:50.474Z,101122.80
2022-07-29T09:44:53.915Z,101106.60
2022-07-29T09:50:00.854Z,101121.80
2022-07-29T09:55:10.372Z,101117.80
2022-07-29T10:00:24.321Z,101113.80
2022-07-29T10:05:36.478Z,101104.40
2022-07-29T10:10:44.035Z,101095.00
2022-07-29T10:15:47.673Z,101095.20
2022-07-29T10:20:52.172Z,101087.40
2022-07-29T10:25:57.654Z,101109.40
2022-07-29T10:31:13.810Z,101089.60
2022-07-29T10:36:35.017Z,101099.40
2022-07-29T10:42:33.468Z,101117.40
2022-07-29T10:47:38.540Z,101102.00
2022-07-29T10:52:51.105Z,101110.40
2022-07-29T10:58:31.490Z,101108.20
2022-07-29T11:09:35.102Z,101080.60
2022-07-29T11:14:57.997Z,101078.60
2022-07-29T11:20:32.771Z,101084.80
2022-07-29T11:25:42.770Z,101088.40
2022-07-29T11:30:56.625Z,101072.00
2022-07-29T11:36:28.567Z,101065.40
2022-07-29T11:41:37.214Z,101064.20
2022-07-29T11:46:53.872Z,101058.60
2022-07-29T11:57:36.329Z,101047.40
2022-07-29T12:07:03.404Z,101052.00
2022-07-29T12:08:15.062Z,101042.60
2022-07-29T12:13:22.090Z,101043.20
2022-07-29T12:18:26.298Z,101032.80
2022-07-29T12:23:35.108Z,101037.40
2022-07-29T12:28:40.183Z,101041.20
2022-07-29T12:33:54.884Z,101040.20
2022-07-29T12:39:00.420Z,101042.20
2022-07-29T12:44:04.458Z,101046.60
2022-07-29T12:49:08.159Z,101043.20
2022-07-29T12:54:15.288Z,101041.60
2022-07-29T12:59:23.344Z,101033.20
2022-07-29T13:04:31.965Z,101039.80
2022-07-29T13:09:49.742Z,101040.00
2022-07-29T13:14:53.212Z,101032.80
2022-07-29T13:20:13.829Z,101029.00
2022-07-29T13:25:33.238Z,101032.80
2022-07-29T13:30:36.792Z,101030.40
2022-07-29T13:35:49.058Z,101029.40
2022-07-29T13:40:52.578Z,101021.80
2022-07-29T13:45:56.235Z,101015.80
2022-07-29T13:50:59.807Z,101012.20
2022-07-29T13:56:03.855Z,101011.00
2022-07-29T14:01:07.379Z,101011.60
2022-07-29T14:06:10.783Z,101012.40
2022-07-29T14:11:14.225Z,101002.60
2022-07-29T14:16:17.871Z,101007.20
2022-07-29T14:21:21.519Z,101000.20
2022-07-29T14:26:25.209Z,101006.20
2022-07-29T14:31:28.686Z,100997.80
2022-07-29T14:36:32.120Z,100996.40
2022-07-29T14:41:35.908Z,101002.60
2022-07-29T14:46:40.526Z,101001.00
2022-07-29T14:51:44.155Z,100996.20
2022-07-29T14:56:48.081Z,100997.00
2022-07-29T15:01:51.521Z,101001.60
2022-07-29T15:06:54.951Z,100989.00
2022-07-29T15:11:59.832Z,100987.80
2022-07-29T15:17:04.653Z,100979.60
2022-07-29T15:22:09.139Z,100982.80
2022-07-29T15:27:15.426Z,100985.40
2022-07-29T15:32:18.877Z,100986.40
2022-07-29T15:37:22.462Z,100977.00
2022-07-29T15:42:25.866Z,100966.20
2022-07-29T15:47:29.383Z,100945.20
2022-07-29T15:52:32.820Z,100919.40
2022-07-29T15:57:36.311Z,100925.00
2022-07-29T16:02:39.933Z,100923.60
2022-07-29T16:07:43.449Z,100923.80
2022-07-29T16:12:46.862Z,100922.40
2022-07-29T16:17:50.728Z,100914.80
2022-07-29T16:22:54.103Z,100900.00
2022-07-29T16:27:59.911Z,100894.60
2022-07-29T16:33:08.043Z,100881.80
2022-07-29T16:38:12.292Z,100957.60
2022-07-29T16:43:15.814Z,100950.60
2022-07-29T16:48:19.258Z,100935.60
2022-07-29T16:53:25.218Z,100938.20
2022-07-29T16:58:30.773Z,100951.20
2022-07-29T17:03:34.110Z,100946.00
2022-07-29T17:08:37.479Z,100928.80
2022-07-29T17:13:40.936Z,100858.60
2022-07-29T17:18:44.260Z,100877.00
2022-07-29T17:23:48.587Z,100918.60
2022-07-29T17:28:52.226Z,100879.40
2022-07-29T17:33:59.828Z,100874.80
2022-07-29T17:39:08.789Z,100907.60
2022-07-29T17:44:12.173Z,100889.00
2022-07-29T17:49:15.652Z,100915.00
2022-07-29T17:54:19.676Z,100883.80
2022-07-29T17:59:23.129Z,100977.00
2022-07-29T18:04:26.512Z,100972.80
2022-07-29T18:09:30.369Z,100981.00
2022-07-29T18:14:34.303Z,100973.80
2022-07-29T18:19:37.934Z,100973.20
2022-07-29T18:24:42.657Z,100977.00
2022-07-29T18:29:46.072Z,100972.00
2022-07-29T18:34:54.614Z,100967.00
2022-07-29T18:39:59.603Z,100960.60
2022-07-29T18:45:03.080Z,100961.60
2022-07-29T18:50:08.571Z,100965.20
2022-07-29T18:55:12.222Z,100960.40
2022-07-29T19:00:16.567Z,100957.40
2022-07-29T19:05:20.997Z,100955.20
2022-07-29T19:10:24.367Z,100957.00
2022-07-29T19:15:29.595Z,100957.80
2022-07-29T19:20:33.389Z,100950.60
2022-07-29T19:25:53.678Z,100964.80
2022-07-29T19:30:57.706Z,100963.00
2022-07-29T19:36:03.306Z,100963.20
2022-07-29T19:41:07.326Z,100956.80
2022-07-29T19:46:10.811Z,100952.40
2022-07-29T19:51:14.363Z,100957.00
2022-07-29T19:56:17.894Z,100957.20
2022-07-29T20:01:21.482Z,100957.20
2022-07-29T20:06:25.054Z,100955.80
2022-07-29T20:11:29.991Z,100961.80
2022-07-29T20:16:33.505Z,100956.60
2022-07-29T20:21:37.222Z,100948.40
2022-07-29T20:26:40.707Z,100959.20
2022-07-29T20:31:44.265Z,100955.60
2022-07-29T20:36:49.207Z,100953.60
2022-07-29T20:41:53.025Z,100955.20
2022-07-29T20:46:57.582Z,100953.80
2022-07-29T20:52:01.227Z,100956.60
2022-07-29T20:57:05.107Z,100954.80
2022-07-29T21:02:08.831Z,100950.40
2022-07-29T21:07:12.959Z,100963.80
2022-07-29T21:12:16.374Z,100963.20
2022-07-29T21:17:22.384Z,100954.60
2022-07-29T21:22:26.068Z,100954.60
2022-07-29T21:27:48.836Z,100955.00
2022-07-29T21:32:52.279Z,100953.80
2022-07-29T21:37:55.972Z,100945.80
2022-07-29T21:42:59.386Z,100940.40
2022-07-29T21:48:03.115Z,100934.00
2022-07-29T21:53:06.624Z,100933.00
2022-07-29T21:58:12.200Z,100927.40
2022-07-29T22:03:16.220Z,100929.60
2022-07-29T22:08:19.628Z,100933.40
2022-07-29T22:13:23.046Z,100925.60
2022-07-29T22:18:26.706Z,100931.00
2022-07-29T22:23:30.073Z,100930.40
2022-07-29T22:28:33.898Z,100928.60
2022-07-29T22:33:37.517Z,100933.20
2022-07-29T22:38:41.106Z,100923.80
2022-07-29T22:43:44.451Z,100921.00
2022-07-29T22:48:48.618Z,100917.00
2022-07-29T22:53:52.400Z,100910.60
2022-07-29T22:58:56.222Z,100907.00
2022-07-29T23:04:00.134Z,100898.60
2022-07-29T23:09:04.591Z,100893.60
2022-07-29T23:14:09.616Z,100891.80
2022-07-29T23:19:13.463Z,100889.00
2022-07-29T23:24:16.962Z,100890.60
2022-07-29T23:29:20.773Z,100886.00
2022-07-29T23:34:24.319Z,100878.00
2022-07-29T23:39:28.012Z,100880.20
2022-07-29T23:44:31.353Z,100877.40
2022-07-29T23:49:35.378Z,100873.80
2022-07-29T23:54:38.792Z,100874.20
2022-07-29T23:59:42.206Z,100874.80
